sensor_id;sensor_type;location;lat;lon;timestamp;P1;durP1;ratioP1;P2;durP2;ratioP2
8948;SDS011;4509;51.522;9.910;2022-08-20T16:00:06;2.45;;;2.35;;
8948;SDS011;4509;51.522;9.910;2022-08-20T16:02:41;2.78;;;2.67;;
8948;SDS011;4509;51.522;9.910;2022-08-20T16:05:26;3.22;;;3.13;;
8948;SDS011;4509;51.522;9.910;2022-08-20T16:08:05;3.47;;;3.38;;
8948;SDS011;4509;51.522;9.910;2022-08-20T16:10:36;3.45;;;3.35;;
8948;SDS011;4509;51.522;9.910;2022-08-20T16:13:17;2.95;;;2.85;;
8948;SDS011;4509;51.522;9.910;2022-08-20T16:15:51;3.33;;;3.22;;
8948;SDS011;4509;51.522;9.910;2022-08-20T16:18:23;3.85;;;3.75;;
8948;SDS011;4509;51.522;9.910;2022-08-20T16:20:53;3.53;;;3.42;;
8948;SDS011;4509;51.522;9.910;2022-08-20T16:23:22;3.50;;;3.40;;
8948;SDS011;4509;51.522;9.910;2022-08-20T16:25:57;3.42;;;3.33;;
8948;SDS011;4509;51.522;9.910;2022-08-20T16:28:38;3.38;;;3.28;;
8948;SDS011;4509;51.522;9.910;2022-08-20T16:31:15;3.63;;;3.53;;
8948;SDS011;4509;51.522;9.910;2022-08-20T16:34:00;3.55;;;3.45;;
8948;SDS011;4509;51.522;9.910;2022-08-20T16:36:36;3.70;;;3.60;;
8948;SDS011;4509;51.522;9.910;2022-08-20T16:39:05;3.50;;;3.40;;
8948;SDS011;4509;51.522;9.910;2022-08-20T16:41:37;3.53;;;3.42;;
8948;SDS011;4509;51.522;9.910;2022-08-20T16:44:08;3.50;;;3.40;;
8948;SDS011;4509;51.522;9.910;2022-08-20T16:46:44;3.60;;;3.50;;
8948;SDS011;4509;51.522;9.910;2022-08-20T16:49:15;4.00;;;3.90;;
8948;SDS011;4509;51.522;9.910;2022-08-20T16:51:43;3.70;;;3.60;;
8948;SDS011;4509;51.522;9.910;2022-08-20T16:54:13;3.75;;;3.65;;
8948;SDS011;4509;51.522;9.910;2022-08-20T16:56:41;4.00;;;3.90;;
8948;SDS011;4509;51.522;9.910;2022-08-20T16:59:14;3.88;;;3.78;;
8948;SDS011;4509;51.522;9.910;2022-08-20T17:01:43;3.80;;;3.70;;
8948;SDS011;4509;51.522;9.910;2022-08-20T17:04:18;3.60;;;3.50;;
8948;SDS011;4509;51.522;9.910;2022-08-20T17:06:47;3.60;;;3.50;;
8948;SDS011;4509;51.522;9.910;2022-08-20T17:09:20;3.45;;;3.35;;
8948;SDS011;4509;51.522;9.910;2022-08-20T17:12:11;3.70;;;3.60;;
8948;SDS011;4509;51.522;9.910;2022-08-20T17:14:42;3.63;;;3.53;;
8948;SDS011;4509;51.522;9.910;2022-08-20T17:17:18;3.45;;;3.35;;
8948;SDS011;4509;51.522;9.910;2022-08-20T17:19:52;3.53;;;3.42;;
8948;SDS011;4509;51.522;9.910;2022-08-20T17:22:21;3.15;;;3.05;;
8948;SDS011;4509;51.522;9.910;2022-08-20T17:24:48;3.38;;;3.28;;
8948;SDS011;4509;51.522;9.910;2022-08-20T17:27:26;3.42;;;3.33;;
8948;SDS011;4509;51.522;9.910;2022-08-20T17:30:08;3.55;;;3.45;;
8948;SDS011;4509;51.522;9.910;2022-08-20T17:32:47;3.47;;;3.38;;
8948;SDS011;4509;51.522;9.910;2022-08-20T17:35:25;3.45;;;3.35;;
8948;SDS011;4509;51.522;9.910;2022-08-20T17:37:55;3.55;;;3.45;;
8948;SDS011;4509;51.522;9.910;2022-08-20T17:40:25;3.45;;;3.35;;
8948;SDS011;4509;51.522;9.910;2022-08-20T17:42:59;3.47;;;3.38;;
8948;SDS011;4509;51.522;9.910;2022-08-20T17:45:30;3.70;;;3.60;;
8948;SDS011;4509;51.522;9.910;2022-08-20T17:48:03;2.92;;;2.83;;
8948;SDS011;4509;51.522;9.910;2022-08-20T17:50:32;3.28;;;3.17;;
8948;SDS011;4509;51.522;9.910;2022-08-20T17:53:04;3.03;;;2.92;;
8948;SDS011;4509;51.522;9.910;2022-08-20T17:55:36;3.30;;;3.20;;
8948;SDS011;4509;51.522;9.910;2022-08-20T17:58:03;3.10;;;3.00;;
8948;SDS011;4509;51.522;9.910;2022-08-20T18:00:36;2.90;;;2.80;;
8948;SDS011;4509;51.522;9.910;2022-08-20T18:03:08;2.97;;;2.88;;
8948;SDS011;4509;51.522;9.910;2022-08-20T18:05:40;2.92;;;2.83;;
8948;SDS011;4509;51.522;9.910;2022-08-20T18:08:14;2.70;;;2.60;;
8948;SDS011;4509;51.522;9.910;2022-08-20T18:10:50;2.85;;;2.75;;
8948;SDS011;4509;51.522;9.910;2022-08-20T18:13:23;2.65;;;2.55;;
8948;SDS011;4509;51.522;9.910;2022-08-20T18:15:57;2.83;;;2.72;;
8948;SDS011;4509;51.522;9.910;2022-08-20T18:18:30;2.80;;;2.70;;
8948;SDS011;4509;51.522;9.910;2022-08-20T18:21:07;2.67;;;2.58;;
8948;SDS011;4509;51.522;9.910;2022-08-20T18:23:46;2.70;;;2.60;;
8948;SDS011;4509;51.522;9.910;2022-08-20T18:26:18;2.53;;;2.42;;
8948;SDS011;4509;51.522;9.910;2022-08-20T18:28:51;2.10;;;2.08;;
8948;SDS011;4509;51.522;9.910;2022-08-20T18:31:23;1.98;;;1.98;;
8948;SDS011;4509;51.522;9.910;2022-08-20T18:33:54;2.08;;;2.05;;
8948;SDS011;4509;51.522;9.910;2022-08-20T18:36:23;2.08;;;2.05;;
8948;SDS011;4509;51.522;9.910;2022-08-20T18:38:56;2.25;;;2.15;;
8948;SDS011;4509;51.522;9.910;2022-08-20T18:41:26;2.20;;;2.10;;
8948;SDS011;4509;51.522;9.910;2022-08-20T18:44:06;2.17;;;2.08;;
8948;SDS011;4509;51.522;9.910;2022-08-20T18:46:34;1.92;;;1.92;;
8948;SDS011;4509;51.522;9.910;2022-08-20T18:49:04;1.88;;;1.88;;
8948;SDS011;4509;51.522;9.910;2022-08-20T18:51:34;1.88;;;1.88;;
8948;SDS011;4509;51.522;9.910;2022-08-20T18:54:05;2.03;;;2.00;;
8948;SDS011;4509;51.522;9.910;2022-08-20T18:56:38;2.08;;;2.03;;
8948;SDS011;4509;51.522;9.910;2022-08-20T18:59:12;2.08;;;2.00;;
8948;SDS011;4509;51.522;9.910;2022-08-20T19:01:43;2.20;;;2.10;;
8948;SDS011;4509;51.522;9.910;2022-08-20T19:04:19;1.95;;;1.95;;
8948;SDS011;4509;51.522;9.910;2022-08-20T19:06:51;1.90;;;1.90;;
8948;SDS011;4509;51.522;9.910;2022-08-20T19:09:30;2.20;;;2.10;;
8948;SDS011;4509;51.522;9.910;2022-08-20T19:12:14;2.00;;;2.00;;
8948;SDS011;4509;51.522;9.910;2022-08-20T19:15:11;1.77;;;1.77;;
8948;SDS011;4509;51.522;9.910;2022-08-20T19:17:42;1.90;;;1.90;;
8948;SDS011;4509;51.522;9.910;2022-08-20T19:20:19;1.80;;;1.80;;
8948;SDS011;4509;51.522;9.910;2022-08-20T19:22:47;1.98;;;1.98;;
8948;SDS011;4509;51.522;9.910;2022-08-20T19:25:19;2.00;;;2.00;;
8948;SDS011;4509;51.522;9.910;2022-08-20T19:27:47;2.00;;;2.00;;
8948;SDS011;4509;51.522;9.910;2022-08-20T19:30:14;1.88;;;1.88;;
8948;SDS011;4509;51.522;9.910;2022-08-20T19:32:53;1.98;;;1.98;;
8948;SDS011;4509;51.522;9.910;2022-08-20T19:35:21;6.82;;;6.53;;
8948;SDS011;4509;51.522;9.910;2022-08-20T19:37:49;2.38;;;2.28;;
8948;SDS011;4509;51.522;9.910;2022-08-20T19:40:20;2.60;;;2.50;;
8948;SDS011;4509;51.522;9.910;2022-08-20T19:42:49;2.50;;;2.40;;
8948;SDS011;4509;51.522;9.910;2022-08-20T19:45:18;2.50;;;2.40;;
8948;SDS011;4509;51.522;9.910;2022-08-20T19:47:53;2.38;;;2.28;;
8948;SDS011;4509;51.522;9.910;2022-08-20T19:50:35;2.70;;;2.60;;
8948;SDS011;4509;51.522;9.910;2022-08-20T19:53:17;2.70;;;2.60;;
8948;SDS011;4509;51.522;9.910;2022-08-20T19:55:55;2.80;;;2.70;;
8948;SDS011;4509;51.522;9.910;2022-08-20T19:58:23;2.95;;;2.85;;
8948;SDS011;4509;51.522;9.910;2022-08-20T20:00:51;3.00;;;2.90;;
8948;SDS011;4509;51.522;9.910;2022-08-20T20:03:19;2.95;;;2.85;;
8948;SDS011;4509;51.522;9.910;2022-08-20T20:05:51;3.25;;;3.15;;
8948;SDS011;4509;51.522;9.910;2022-08-20T20:08:19;3.25;;;3.15;;
8948;SDS011;4509;51.522;9.910;2022-08-20T20:10:50;3.53;;;3.42;;
8948;SDS011;4509;51.522;9.910;2022-08-20T20:13:20;3.38;;;3.28;;
8948;SDS011;4509;51.522;9.910;2022-08-20T20:15:49;3.45;;;3.35;;
8948;SDS011;4509;51.522;9.910;2022-08-20T20:18:18;3.78;;;3.67;;
8948;SDS011;4509;51.522;9.910;2022-08-20T20:20:47;3.78;;;3.67;;
8948;SDS011;4509;51.522;9.910;2022-08-20T20:23:19;3.50;;;3.40;;
8948;SDS011;4509;51.522;9.910;2022-08-20T20:25:52;3.83;;;3.72;;
8948;SDS011;4509;51.522;9.910;2022-08-20T20:28:23;3.30;;;3.20;;
8948;SDS011;4509;51.522;9.910;2022-08-20T20:30:52;3.50;;;3.40;;
8948;SDS011;4509;51.522;9.910;2022-08-20T20:33:21;4.13;;;4.03;;
8948;SDS011;4509;51.522;9.910;2022-08-20T20:35:59;3.88;;;3.78;;
8948;SDS011;4509;51.522;9.910;2022-08-20T20:38:29;4.10;;;3.97;;
8948;SDS011;4509;51.522;9.910;2022-08-20T20:40:56;3.42;;;3.33;;
8948;SDS011;4509;51.522;9.910;2022-08-20T20:43:29;3.70;;;3.60;;
8948;SDS011;4509;51.522;9.910;2022-08-20T20:45:59;3.60;;;3.50;;
8948;SDS011;4509;51.522;9.910;2022-08-20T20:48:38;3.92;;;3.83;;
8948;SDS011;4509;51.522;9.910;2022-08-20T20:51:14;3.83;;;3.72;;
8948;SDS011;4509;51.522;9.910;2022-08-20T20:53:45;4.03;;;3.93;;
8948;SDS011;4509;51.522;9.910;2022-08-20T20:59:08;3.80;;;3.70;;
8948;SDS011;4509;51.522;9.910;2022-08-20T21:01:36;3.67;;;3.57;;
8948;SDS011;4509;51.522;9.910;2022-08-20T21:04:04;3.57;;;3.47;;
8948;SDS011;4509;51.522;9.910;2022-08-20T21:06:30;3.87;;;3.77;;
8948;SDS011;4509;51.522;9.910;2022-08-20T21:08:58;3.60;;;3.50;;
8948;SDS011;4509;51.522;9.910;2022-08-20T21:11:25;3.27;;;3.17;;
8948;SDS011;4509;51.522;9.910;2022-08-20T21:13:52;3.20;;;3.10;;
8948;SDS011;4509;51.522;9.910;2022-08-20T21:16:19;3.07;;;2.97;;
8948;SDS011;4509;51.522;9.910;2022-08-20T21:18:45;3.33;;;3.23;;
8948;SDS011;4509;51.522;9.910;2022-08-20T21:21:12;3.03;;;2.93;;
8948;SDS011;4509;51.522;9.910;2022-08-20T21:23:39;3.33;;;3.23;;
8948;SDS011;4509;51.522;9.910;2022-08-20T21:26:07;3.30;;;3.20;;
8948;SDS011;4509;51.522;9.910;2022-08-20T21:28:34;3.50;;;3.40;;
8948;SDS011;4509;51.522;9.910;2022-08-20T21:31:01;3.20;;;3.10;;
8948;SDS011;4509;51.522;9.910;2022-08-20T21:33:28;3.37;;;3.27;;
8948;SDS011;4509;51.522;9.910;2022-08-20T21:35:55;3.30;;;3.20;;
8948;SDS011;4509;51.522;9.910;2022-08-20T21:38:21;3.17;;;3.07;;
8948;SDS011;4509;51.522;9.910;2022-08-20T21:40:49;3.33;;;3.23;;
8948;SDS011;4509;51.522;9.910;2022-08-20T21:43:17;3.20;;;3.10;;
8948;SDS011;4509;51.522;9.910;2022-08-20T21:45:44;5.17;;;4.97;;
8948;SDS011;4509;51.522;9.910;2022-08-20T21:48:10;3.23;;;3.13;;
8948;SDS011;4509;51.522;9.910;2022-08-20T21:50:37;3.30;;;3.20;;
8948;SDS011;4509;51.522;9.910;2022-08-20T21:53:05;3.00;;;2.90;;
8948;SDS011;4509;51.522;9.910;2022-08-20T21:55:33;3.10;;;3.00;;
8948;SDS011;4509;51.522;9.910;2022-08-20T21:58:01;3.03;;;2.93;;
8948;SDS011;4509;51.522;9.910;2022-08-20T22:00:47;2.70;;;2.60;;
8948;SDS011;4509;51.522;9.910;2022-08-20T22:03:18;2.77;;;2.67;;
8948;SDS011;4509;51.522;9.910;2022-08-20T22:05:46;2.37;;;2.27;;
8948;SDS011;4509;51.522;9.910;2022-08-20T22:08:14;2.47;;;2.37;;
8948;SDS011;4509;51.522;9.910;2022-08-20T22:13:09;2.07;;;2.07;;
8948;SDS011;4509;51.522;9.910;2022-08-20T22:15:36;2.03;;;2.03;;
8948;SDS011;4509;51.522;9.910;2022-08-20T22:18:05;2.30;;;2.20;;
8948;SDS011;4509;51.522;9.910;2022-08-20T22:20:33;2.07;;;2.07;;
8948;SDS011;4509;51.522;9.910;2022-08-20T22:23:00;2.03;;;2.00;;
8948;SDS011;4509;51.522;9.910;2022-08-20T22:25:29;1.90;;;1.90;;
8948;SDS011;4509;51.522;9.910;2022-08-20T22:27:56;1.93;;;1.93;;
8948;SDS011;4509;51.522;9.910;2022-08-20T22:30:23;1.77;;;1.77;;
8948;SDS011;4509;51.522;9.910;2022-08-20T22:32:51;1.80;;;1.80;;
8948;SDS011;4509;51.522;9.910;2022-08-20T22:35:21;1.83;;;1.83;;
8948;SDS011;4509;51.522;9.910;2022-08-20T22:37:48;1.70;;;1.70;;
8948;SDS011;4509;51.522;9.910;2022-08-20T22:40:15;1.80;;;1.80;;
8948;SDS011;4509;51.522;9.910;2022-08-20T22:42:42;1.77;;;1.77;;
8948;SDS011;4509;51.522;9.910;2022-08-20T22:45:11;1.70;;;1.70;;
8948;SDS011;4509;51.522;9.910;2022-08-20T22:47:38;1.67;;;1.67;;
8948;SDS011;4509;51.522;9.910;2022-08-20T22:50:06;1.60;;;1.60;;
8948;SDS011;4509;51.522;9.910;2022-08-20T22:52:34;1.70;;;1.70;;
8948;SDS011;4509;51.522;9.910;2022-08-20T22:55:03;1.90;;;1.90;;
8948;SDS011;4509;51.522;9.910;2022-08-20T22:57:31;1.80;;;1.80;;
8948;SDS011;4509;51.522;9.910;2022-08-20T22:59:58;1.73;;;1.73;;
8948;SDS011;4509;51.522;9.910;2022-08-20T23:02:24;1.70;;;1.70;;
8948;SDS011;4509;51.522;9.910;2022-08-20T23:04:51;1.77;;;1.77;;
8948;SDS011;4509;51.522;9.910;2022-08-20T23:07:18;1.60;;;1.60;;
8948;SDS011;4509;51.522;9.910;2022-08-20T23:09:47;1.60;;;1.60;;
8948;SDS011;4509;51.522;9.910;2022-08-20T23:12:14;1.50;;;1.50;;
8948;SDS011;4509;51.522;9.910;2022-08-20T23:14:41;1.80;;;1.80;;
8948;SDS011;4509;51.522;9.910;2022-08-20T23:17:08;1.60;;;1.60;;
8948;SDS011;4509;51.522;9.910;2022-08-20T23:19:38;1.80;;;1.80;;
8948;SDS011;4509;51.522;9.910;2022-08-20T23:22:06;1.70;;;1.70;;
8948;SDS011;4509;51.522;9.910;2022-08-20T23:24:33;1.70;;;1.70;;
8948;SDS011;4509;51.522;9.910;2022-08-20T23:27:02;1.60;;;1.60;;
8948;SDS011;4509;51.522;9.910;2022-08-20T23:29:31;1.70;;;1.70;;
8948;SDS011;4509;51.522;9.910;2022-08-20T23:32:00;1.70;;;1.70;;
8948;SDS011;4509;51.522;9.910;2022-08-20T23:34:27;1.80;;;1.80;;
8948;SDS011;4509;51.522;9.910;2022-08-20T23:36:57;1.60;;;1.60;;
8948;SDS011;4509;51.522;9.910;2022-08-20T23:39:26;1.77;;;1.77;;
8948;SDS011;4509;51.522;9.910;2022-08-20T23:41:55;1.90;;;1.90;;
8948;SDS011;4509;51.522;9.910;2022-08-20T23:44:25;1.83;;;1.83;;
8948;SDS011;4509;51.522;9.910;2022-08-20T23:46:52;1.80;;;1.80;;
8948;SDS011;4509;51.522;9.910;2022-08-20T23:49:20;2.13;;;2.10;;
8948;SDS011;4509;51.522;9.910;2022-08-20T23:51:47;1.90;;;1.90;;
8948;SDS011;4509;51.522;9.910;2022-08-20T23:54:14;2.00;;;2.00;;
8948;SDS011;4509;51.522;9.910;2022-08-20T23:56:41;2.07;;;2.07;;
8948;SDS011;4509;51.522;9.910;2022-08-20T23:59:08;1.90;;;1.90;;
